createdAt,value
2018-12-06T00:03:00.761Z,43.70
2018-12-06T00:08:19.768Z,43.80
2018-12-06T00:13:44.294Z,43.80
2018-12-06T00:19:10.701Z,44.30
2018-12-06T00:24:33.896Z,44.40
2018-12-06T00:30:08.820Z,44.50
2018-12-06T00:35:19.637Z,44.20
2018-12-06T00:40:34.472Z,44.60
2018-12-06T00:45:45.696Z,44.60
2018-12-06T00:51:10.723Z,44.60
2018-12-06T00:56:21.582Z,44.30
2018-12-06T01:01:32.778Z,44.50
2018-12-06T01:06:43.790Z,44.20
2018-12-06T01:17:50.578Z,44.50
2018-12-06T01:23:03.879Z,44.40
2018-12-06T01:28:14.856Z,44.50
2018-12-06T01:33:25.437Z,44.10
2018-12-06T01:38:36.562Z,44.40
2018-12-06T01:43:49.574Z,44.60
2018-12-06T01:49:00.814Z,44.70
2018-12-06T01:54:11.954Z,44.60
2018-12-06T01:59:23.214Z,44.30
2018-12-06T02:04:33.446Z,44.10
2018-12-06T02:09:47.804Z,44.10
2018-12-06T02:14:58.604Z,44.40
2018-12-06T02:20:20.965Z,44.40
2018-12-06T02:25:31.248Z,44.80
2018-12-06T02:30:52.721Z,44.70
2018-12-06T02:36:03.575Z,44.30
2018-12-06T02:47:10.354Z,44.80
2018-12-06T02:52:21.836Z,45.00
2018-12-06T03:02:46.610Z,44.80
2018-12-06T03:07:58.698Z,44.80
2018-12-06T03:13:11.730Z,44.80
2018-12-06T03:18:23.840Z,44.70
2018-12-06T03:23:34.662Z,44.40
2018-12-06T03:30:10.903Z,44.80
2018-12-06T03:35:22.334Z,45.00
2018-12-06T03:40:39.470Z,45.10
2018-12-06T03:45:51.585Z,45.10
2018-12-06T03:51:24.594Z,45.10
2018-12-06T03:56:35.825Z,45.20
2018-12-06T04:07:11.640Z,44.90
2018-12-06T04:21:41.213Z,44.30
2018-12-06T04:26:52.668Z,44.80
2018-12-06T04:32:03.862Z,44.80
2018-12-06T04:37:14.704Z,44.50
2018-12-06T04:42:25.678Z,44.90
2018-12-06T04:47:42.308Z,44.90
2018-12-06T04:52:59.729Z,44.80
2018-12-06T04:58:09.549Z,45.20
2018-12-06T05:03:21.230Z,45.50
2018-12-06T05:08:32.699Z,45.80
2018-12-06T05:14:08.805Z,45.60
2018-12-06T05:19:19.701Z,45.10
2018-12-06T05:24:30.789Z,45.70
2018-12-06T05:29:42.765Z,45.20
2018-12-06T05:34:53.818Z,45.10
2018-12-06T05:40:10.764Z,45.60
2018-12-06T05:45:21.568Z,46.00
2018-12-06T05:50:33.150Z,46.20
2018-12-06T05:55:43.702Z,46.20
2018-12-06T06:00:54.797Z,46.20
2018-12-06T06:06:05.576Z,46.00
2018-12-06T06:11:16.606Z,46.60
2018-12-06T06:16:27.596Z,46.50
2018-12-06T06:22:10.521Z,46.20
2018-12-06T06:32:32.386Z,45.80
2018-12-06T06:38:00.620Z,46.70
2018-12-06T06:43:10.876Z,46.70
2018-12-06T06:48:21.621Z,46.80
2018-12-06T06:53:52.323Z,47.00
2018-12-06T06:59:03.840Z,47.00
2018-12-06T07:04:14.713Z,46.60
2018-12-06T07:09:25.581Z,46.90
2018-12-06T07:14:58.659Z,46.70
2018-12-06T07:20:10.300Z,46.90
2018-12-06T07:25:22.200Z,47.10
2018-12-06T07:30:42.322Z,46.80
2018-12-06T07:35:53.722Z,46.70
2018-12-06T07:41:04.572Z,46.80
2018-12-06T07:46:15.872Z,46.60
2018-12-06T07:57:14.495Z,47.50
2018-12-06T08:02:30.425Z,47.10
2018-12-06T08:07:42.589Z,47.10
2018-12-06T08:13:01.819Z,46.90
2018-12-06T08:18:16.976Z,46.40
2018-12-06T08:23:34.716Z,47.10
2018-12-06T08:28:46.639Z,47.20
2018-12-06T08:34:05.951Z,47.30
2018-12-06T08:39:18.706Z,47.70
2018-12-06T08:44:29.767Z,47.80
2018-12-06T08:54:59.599Z,47.50
2018-12-06T09:00:14.634Z,47.70
2018-12-06T09:05:36.610Z,47.70
2018-12-06T09:11:06.467Z,47.50
2018-12-06T09:16:19.740Z,47.60
2018-12-06T09:21:30.790Z,48.10
2018-12-06T09:26:41.706Z,47.40
2018-12-06T09:32:24.469Z,47.90
2018-12-06T09:37:39.541Z,47.80
2018-12-06T09:42:54.457Z,48.00
2018-12-06T09:48:07.583Z,48.00
2018-12-06T09:53:21.881Z,47.80
2018-12-06T09:58:37.604Z,47.50
2018-12-06T10:10:41.445Z,47.30
2018-12-06T10:15:52.582Z,48.40
2018-12-06T10:21:07.467Z,48.40
2018-12-06T10:26:26.342Z,48.50
2018-12-06T10:31:43.541Z,48.30
2018-12-06T10:42:35.284Z,48.10
2018-12-06T10:47:47.812Z,48.10
2018-12-06T10:53:03.694Z,47.80
2018-12-06T10:58:17.573Z,48.20
2018-12-06T11:03:53.337Z,48.30
2018-12-06T11:09:11.360Z,48.40
2018-12-06T11:14:55.039Z,48.40
2018-12-06T11:20:06.548Z,48.50
2018-12-06T11:25:19.571Z,48.60
2018-12-06T11:33:20.414Z,48.30
2018-12-06T11:38:34.772Z,48.60
2018-12-06T11:43:54.702Z,48.20
2018-12-06T11:49:09.877Z,48.50
2018-12-06T11:57:35.295Z,48.60
2018-12-06T12:03:19.495Z,48.60
2018-12-06T12:06:20.457Z,48.50
2018-12-06T12:17:22.794Z,47.70
2018-12-06T12:22:32.557Z,48.50
2018-12-06T12:27:47.574Z,48.70
2018-12-06T12:33:05.642Z,48.80
2018-12-06T12:38:18.873Z,48.80
2018-12-06T12:43:41.796Z,48.40
2018-12-06T12:48:57.373Z,48.40
2018-12-06T12:54:08.302Z,48.70
2018-12-06T12:59:22.683Z,48.70
2018-12-06T13:04:32.806Z,48.70
2018-12-06T13:09:56.662Z,48.30
2018-12-06T13:15:09.378Z,48.70
2018-12-06T13:20:22.495Z,48.70
2018-12-06T13:25:40.627Z,48.60
2018-12-06T13:30:59.677Z,48.60
2018-12-06T13:36:11.005Z,48.50
2018-12-06T13:41:24.413Z,48.70
2018-12-06T13:46:34.692Z,48.80
2018-12-06T13:51:51.592Z,48.80
2018-12-06T13:57:05.831Z,48.90
2018-12-06T14:02:47.646Z,48.60
2018-12-06T14:08:01.701Z,48.80
2018-12-06T14:13:11.882Z,48.90
2018-12-06T14:18:23.297Z,48.80
2018-12-06T14:23:36.770Z,48.70
2018-12-06T14:34:17.971Z,48.60
2018-12-06T14:39:33.307Z,48.80
2018-12-06T14:44:50.595Z,48.90
2018-12-06T14:50:05.852Z,49.10
2018-12-06T14:55:39.502Z,48.60
2018-12-06T15:00:58.594Z,49.10
2018-12-06T15:06:08.468Z,39.20
2018-12-06T15:11:20.659Z,27.80
2018-12-06T15:16:31.602Z,23.80
2018-12-06T15:21:42.629Z,21.60
2018-12-06T15:29:20.765Z,20.50
2018-12-06T15:34:31.689Z,19.90
2018-12-06T15:39:45.534Z,21.10
2018-12-06T15:45:03.777Z,22.50
2018-12-06T15:50:20.550Z,23.80
2018-12-06T15:55:32.420Z,25.80
2018-12-06T16:00:44.526Z,27.40
2018-12-06T16:05:59.733Z,29.40
2018-12-06T16:17:05.533Z,32.30
2018-12-06T16:22:22.218Z,33.80
2018-12-06T16:32:56.475Z,35.50
2018-12-06T16:38:07.790Z,37.40
2018-12-06T16:43:19.704Z,38.20
2018-12-06T16:48:33.521Z,39.40
2018-12-06T16:53:44.613Z,39.70
2018-12-06T16:58:56.671Z,40.60
2018-12-06T17:04:11.629Z,41.20
2018-12-06T17:09:22.810Z,41.80
2018-12-06T17:14:37.308Z,42.10
2018-12-06T17:19:49.058Z,43.00
2018-12-06T17:24:59.583Z,43.50
2018-12-06T17:30:13.743Z,43.10
2018-12-06T17:35:24.662Z,36.40
2018-12-06T17:40:36.426Z,29.20
2018-12-06T17:45:46.660Z,25.80
2018-12-06T17:51:01.306Z,25.10
2018-12-06T17:56:13.204Z,25.80
2018-12-06T18:01:24.897Z,27.10
2018-12-06T18:06:38.347Z,28.60
2018-12-06T18:11:49.548Z,30.00
2018-12-06T18:16:59.543Z,31.60
2018-12-06T18:22:13.993Z,33.30
2018-12-06T18:27:30.452Z,34.80
2018-12-06T18:32:49.637Z,35.90
2018-12-06T18:38:01.323Z,37.60
2018-12-06T18:43:20.328Z,39.40
2018-12-06T18:48:31.309Z,41.20
2018-12-06T18:53:42.899Z,41.80
2018-12-06T18:58:55.788Z,42.50
2018-12-06T19:09:26.948Z,43.30
2018-12-06T19:14:37.764Z,43.90
2018-12-06T19:19:52.555Z,44.40
2018-12-06T19:25:03.807Z,38.60
2018-12-06T19:30:15.882Z,29.00
2018-12-06T19:35:28.315Z,26.70
2018-12-06T19:40:40.596Z,27.00
2018-12-06T19:45:51.541Z,27.80
2018-12-06T19:51:02.980Z,29.20
2018-12-06T19:56:13.756Z,30.70
2018-12-06T20:01:24.655Z,33.20
2018-12-06T20:06:38.573Z,34.10
2018-12-06T20:11:53.554Z,35.80
2018-12-06T20:17:05.648Z,37.10
2018-12-06T20:22:15.540Z,38.60
2018-12-06T20:27:26.773Z,39.90
2018-12-06T20:32:37.884Z,41.10
2018-12-06T20:42:59.453Z,41.70
2018-12-06T20:48:10.897Z,43.10
2018-12-06T20:53:22.689Z,43.60
2018-12-06T20:58:35.614Z,44.20
2018-12-06T21:04:01.868Z,44.70
2018-12-06T21:09:12.794Z,44.80
2018-12-06T21:22:05.891Z,45.70
2018-12-06T21:27:25.677Z,46.00
2018-12-06T21:32:36.858Z,46.30
2018-12-06T21:42:59.827Z,46.00
2018-12-06T21:48:10.980Z,46.70
2018-12-06T21:53:21.594Z,47.20
2018-12-06T21:58:34.666Z,47.40
2018-12-06T22:03:45.769Z,47.50
2018-12-06T22:08:56.614Z,47.20
2018-12-06T22:19:20.397Z,46.90
2018-12-06T22:24:31.829Z,47.80
2018-12-06T22:29:42.645Z,47.60
2018-12-06T22:34:53.684Z,48.00
2018-12-06T22:46:32.569Z,48.20
2018-12-06T22:51:43.908Z,48.30
2018-12-06T22:56:54.649Z,48.30
2018-12-06T23:07:16.717Z,48.50
2018-12-06T23:12:27.611Z,48.70
2018-12-06T23:22:49.633Z,47.80
2018-12-06T23:28:01.301Z,48.60
2018-12-06T23:33:11.652Z,48.70
2018-12-06T23:38:22.816Z,48.70
2018-12-06T23:43:33.799Z,48.40
2018-12-06T23:48:44.848Z,48.50
2018-12-06T23:54:15.552Z,48.50
2018-12-06T23:59:26.710Z,48.90
